sensor_id;sensor_type;location;lat;lon;timestamp;temperature;humidity
21191;DHT22;10753;52.304;20.990;2022-07-01T00:01:40;23.50;99.90
21191;DHT22;10753;52.304;20.990;2022-07-01T00:04:07;23.50;99.90
21191;DHT22;10753;52.304;20.990;2022-07-01T00:06:33;23.50;99.90
21191;DHT22;10753;52.304;20.990;2022-07-01T00:08:59;23.50;99.90
21191;DHT22;10753;52.304;20.990;2022-07-01T00:11:25;23.50;99.90
21191;DHT22;10753;52.304;20.990;2022-07-01T00:13:50;23.50;1.00
21191;DHT22;10753;52.304;20.990;2022-07-01T00:16:17;23.50;1.00
21191;DHT22;10753;52.304;20.990;2022-07-01T00:18:43;23.50;1.00
21191;DHT22;10753;52.304;20.990;2022-07-01T00:21:09;23.50;1.00
21191;DHT22;10753;52.304;20.990;2022-07-01T00:23:34;23.50;1.00
21191;DHT22;10753;52.304;20.990;2022-07-01T00:26:00;23.50;1.00
21191;DHT22;10753;52.304;20.990;2022-07-01T00:28:26;23.50;1.00
21191;DHT22;10753;52.304;20.990;2022-07-01T00:30:52;23.60;1.00
21191;DHT22;10753;52.304;20.990;2022-07-01T00:33:17;23.60;1.00
21191;DHT22;10753;52.304;20.990;2022-07-01T00:35:43;23.60;1.00
21191;DHT22;10753;52.304;20.990;2022-07-01T00:38:09;23.60;1.00
21191;DHT22;10753;52.304;20.990;2022-07-01T00:40:35;23.60;1.00
21191;DHT22;10753;52.304;20.990;2022-07-01T00:43:00;23.60;1.00
21191;DHT22;10753;52.304;20.990;2022-07-01T00:45:26;23.70;1.00
21191;DHT22;10753;52.304;20.990;2022-07-01T00:47:52;23.70;1.00
21191;DHT22;10753;52.304;20.990;2022-07-01T00:50:18;23.60;1.00
21191;DHT22;10753;52.304;20.990;2022-07-01T00:52:45;23.60;1.00
21191;DHT22;10753;52.304;20.990;2022-07-01T00:55:12;23.60;39.30
21191;DHT22;10753;52.304;20.990;2022-07-01T00:57:39;23.60;59.10
21191;DHT22;10753;52.304;20.990;2022-07-01T01:00:06;23.60;99.90
21191;DHT22;10753;52.304;20.990;2022-07-01T01:02:33;23.50;99.90
21191;DHT22;10753;52.304;20.990;2022-07-01T01:04:59;23.50;99.90
21191;DHT22;10753;52.304;20.990;2022-07-01T01:07:25;23.50;99.90
21191;DHT22;10753;52.304;20.990;2022-07-01T01:09:50;23.50;99.90
21191;DHT22;10753;52.304;20.990;2022-07-01T01:12:16;23.50;99.90
21191;DHT22;10753;52.304;20.990;2022-07-01T01:14:52;23.50;1.00
21191;DHT22;10753;52.304;20.990;2022-07-01T01:17:18;23.50;1.00
21191;DHT22;10753;52.304;20.990;2022-07-01T01:19:44;23.50;1.00
21191;DHT22;10753;52.304;20.990;2022-07-01T01:22:13;23.50;1.00
21191;DHT22;10753;52.304;20.990;2022-07-01T01:24:40;23.50;1.00
21191;DHT22;10753;52.304;20.990;2022-07-01T01:27:07;23.40;54.00
21191;DHT22;10753;52.304;20.990;2022-07-01T01:29:35;23.30;99.90
21191;DHT22;10753;52.304;20.990;2022-07-01T01:32:01;23.30;99.90
21191;DHT22;10753;52.304;20.990;2022-07-01T01:34:27;23.30;99.90
21191;DHT22;10753;52.304;20.990;2022-07-01T01:36:53;23.30;89.40
21191;DHT22;10753;52.304;20.990;2022-07-01T01:39:19;23.20;55.90
21191;DHT22;10753;52.304;20.990;2022-07-01T01:41:46;23.20;1.00
21191;DHT22;10753;52.304;20.990;2022-07-01T01:44:12;23.10;1.00
21191;DHT22;10753;52.304;20.990;2022-07-01T01:46:37;23.00;1.00
21191;DHT22;10753;52.304;20.990;2022-07-01T01:49:04;23.00;1.00
21191;DHT22;10753;52.304;20.990;2022-07-01T01:51:31;23.00;1.00
21191;DHT22;10753;52.304;20.990;2022-07-01T01:53:57;22.90;1.00
21191;DHT22;10753;52.304;20.990;2022-07-01T01:56:23;22.90;1.00
21191;DHT22;10753;52.304;20.990;2022-07-01T01:58:49;22.80;1.00
21191;DHT22;10753;52.304;20.990;2022-07-01T02:01:16;22.70;1.00
21191;DHT22;10753;52.304;20.990;2022-07-01T02:03:44;22.60;1.00
21191;DHT22;10753;52.304;20.990;2022-07-01T02:06:10;22.50;1.00
21191;DHT22;10753;52.304;20.990;2022-07-01T02:08:40;22.40;1.00
21191;DHT22;10753;52.304;20.990;2022-07-01T02:11:06;22.30;67.50
21191;DHT22;10753;52.304;20.990;2022-07-01T02:13:31;22.30;60.60
21191;DHT22;10753;52.304;20.990;2022-07-01T02:15:57;22.20;99.90
21191;DHT22;10753;52.304;20.990;2022-07-01T02:18:23;22.20;99.90
21191;DHT22;10753;52.304;20.990;2022-07-01T02:20:49;22.10;99.90
21191;DHT22;10753;52.304;20.990;2022-07-01T02:23:15;22.00;99.90
21191;DHT22;10753;52.304;20.990;2022-07-01T02:25:41;22.00;1.00
21191;DHT22;10753;52.304;20.990;2022-07-01T02:28:07;21.90;1.00
21191;DHT22;10753;52.304;20.990;2022-07-01T02:30:33;21.90;1.00
21191;DHT22;10753;52.304;20.990;2022-07-01T02:33:02;21.80;1.00
21191;DHT22;10753;52.304;20.990;2022-07-01T02:35:28;21.80;1.00
21191;DHT22;10753;52.304;20.990;2022-07-01T02:37:54;21.80;1.00
21191;DHT22;10753;52.304;20.990;2022-07-01T02:40:20;21.80;23.40
21191;DHT22;10753;52.304;20.990;2022-07-01T02:42:46;21.90;24.90
21191;DHT22;10753;52.304;20.990;2022-07-01T02:45:12;21.80;1.00
21191;DHT22;10753;52.304;20.990;2022-07-01T02:47:39;21.90;99.90
21191;DHT22;10753;52.304;20.990;2022-07-01T02:50:07;22.10;1.00
21191;DHT22;10753;52.304;20.990;2022-07-01T02:52:37;22.20;1.00
21191;DHT22;10753;52.304;20.990;2022-07-01T02:55:06;22.30;1.00
21191;DHT22;10753;52.304;20.990;2022-07-01T02:57:32;22.20;1.00
21191;DHT22;10753;52.304;20.990;2022-07-01T02:59:58;22.20;99.90
21191;DHT22;10753;52.304;20.990;2022-07-01T03:02:24;22.20;99.90
21191;DHT22;10753;52.304;20.990;2022-07-01T03:04:51;22.10;99.90
21191;DHT22;10753;52.304;20.990;2022-07-01T03:07:17;22.10;99.90
21191;DHT22;10753;52.304;20.990;2022-07-01T03:09:43;22.20;13.00
21191;DHT22;10753;52.304;20.990;2022-07-01T03:12:10;22.20;1.00
21191;DHT22;10753;52.304;20.990;2022-07-01T03:17:31;22.40;1.00
21191;DHT22;10753;52.304;20.990;2022-07-01T03:19:57;22.40;99.90
21191;DHT22;10753;52.304;20.990;2022-07-01T03:22:24;22.40;99.90
21191;DHT22;10753;52.304;20.990;2022-07-01T03:24:51;22.40;99.90
21191;DHT22;10753;52.304;20.990;2022-07-01T03:27:18;22.60;1.00
21191;DHT22;10753;52.304;20.990;2022-07-01T03:29:45;22.70;1.00
21191;DHT22;10753;52.304;20.990;2022-07-01T03:32:11;22.80;99.90
21191;DHT22;10753;52.304;20.990;2022-07-01T03:34:38;22.90;99.90
21191;DHT22;10753;52.304;20.990;2022-07-01T03:37:08;22.90;1.00
21191;DHT22;10753;52.304;20.990;2022-07-01T03:39:35;22.90;1.00
21191;DHT22;10753;52.304;20.990;2022-07-01T03:42:01;22.90;1.00
21191;DHT22;10753;52.304;20.990;2022-07-01T03:44:27;22.90;1.00
21191;DHT22;10753;52.304;20.990;2022-07-01T03:46:53;22.90;1.00
21191;DHT22;10753;52.304;20.990;2022-07-01T03:49:19;23.10;1.00
21191;DHT22;10753;52.304;20.990;2022-07-01T03:51:45;23.30;1.00
21191;DHT22;10753;52.304;20.990;2022-07-01T03:54:11;23.40;1.00
21191;DHT22;10753;52.304;20.990;2022-07-01T03:57:04;23.40;99.90
21191;DHT22;10753;52.304;20.990;2022-07-01T03:59:34;23.60;99.90
21191;DHT22;10753;52.304;20.990;2022-07-01T04:02:01;23.70;99.90
21191;DHT22;10753;52.304;20.990;2022-07-01T04:04:28;23.70;1.00
21191;DHT22;10753;52.304;20.990;2022-07-01T04:06:56;23.70;1.00
21191;DHT22;10753;52.304;20.990;2022-07-01T04:09:23;23.80;1.00
21191;DHT22;10753;52.304;20.990;2022-07-01T04:11:49;23.80;1.00
21191;DHT22;10753;52.304;20.990;2022-07-01T04:14:15;23.90;1.00
21191;DHT22;10753;52.304;20.990;2022-07-01T04:16:41;24.00;1.00
21191;DHT22;10753;52.304;20.990;2022-07-01T04:19:08;24.10;1.00
21191;DHT22;10753;52.304;20.990;2022-07-01T04:21:34;24.30;1.00
21191;DHT22;10753;52.304;20.990;2022-07-01T04:24:18;24.40;1.00
21191;DHT22;10753;52.304;20.990;2022-07-01T04:26:44;24.50;1.00
21191;DHT22;10753;52.304;20.990;2022-07-01T04:29:10;24.60;1.00
21191;DHT22;10753;52.304;20.990;2022-07-01T04:31:38;24.80;99.90
21191;DHT22;10753;52.304;20.990;2022-07-01T04:34:05;24.90;99.90
21191;DHT22;10753;52.304;20.990;2022-07-01T04:36:31;25.00;99.90
21191;DHT22;10753;52.304;20.990;2022-07-01T04:38:57;25.10;99.90
21191;DHT22;10753;52.304;20.990;2022-07-01T04:41:23;25.20;99.90
21191;DHT22;10753;52.304;20.990;2022-07-01T04:44:07;25.40;81.60
21191;DHT22;10753;52.304;20.990;2022-07-01T04:46:33;25.50;1.00
21191;DHT22;10753;52.304;20.990;2022-07-01T04:48:58;25.70;1.00
21191;DHT22;10753;52.304;20.990;2022-07-01T04:51:24;25.80;1.00
21191;DHT22;10753;52.304;20.990;2022-07-01T04:53:50;25.90;1.00
21191;DHT22;10753;52.304;20.990;2022-07-01T04:56:16;26.00;1.00
21191;DHT22;10753;52.304;20.990;2022-07-01T04:58:42;26.10;1.00
21191;DHT22;10753;52.304;20.990;2022-07-01T05:01:07;26.20;1.00
21191;DHT22;10753;52.304;20.990;2022-07-01T05:03:33;26.30;1.00
21191;DHT22;10753;52.304;20.990;2022-07-01T05:05:59;26.50;1.00
21191;DHT22;10753;52.304;20.990;2022-07-01T05:08:25;26.60;1.00
21191;DHT22;10753;52.304;20.990;2022-07-01T05:10:51;26.70;1.00
21191;DHT22;10753;52.304;20.990;2022-07-01T05:13:17;26.80;1.00
21191;DHT22;10753;52.304;20.990;2022-07-01T05:15:42;26.90;1.00
21191;DHT22;10753;52.304;20.990;2022-07-01T05:18:08;27.00;1.00
21191;DHT22;10753;52.304;20.990;2022-07-01T05:20:57;27.10;1.00
21191;DHT22;10753;52.304;20.990;2022-07-01T05:23:41;27.30;99.90
21191;DHT22;10753;52.304;20.990;2022-07-01T05:26:07;27.40;99.90
21191;DHT22;10753;52.304;20.990;2022-07-01T05:28:32;27.50;99.90
21191;DHT22;10753;52.304;20.990;2022-07-01T05:30:58;27.60;99.90
21191;DHT22;10753;52.304;20.990;2022-07-01T05:33:24;27.60;99.90
21191;DHT22;10753;52.304;20.990;2022-07-01T05:35:52;27.80;99.90
21191;DHT22;10753;52.304;20.990;2022-07-01T05:38:18;28.00;99.90
21191;DHT22;10753;52.304;20.990;2022-07-01T05:40:44;28.10;99.90
21191;DHT22;10753;52.304;20.990;2022-07-01T05:43:09;28.20;99.90
21191;DHT22;10753;52.304;20.990;2022-07-01T05:45:35;28.30;99.90
21191;DHT22;10753;52.304;20.990;2022-07-01T05:48:01;28.30;99.90
21191;DHT22;10753;52.304;20.990;2022-07-01T05:50:27;28.30;99.90
21191;DHT22;10753;52.304;20.990;2022-07-01T05:52:52;28.40;99.90
21191;DHT22;10753;52.304;20.990;2022-07-01T05:55:18;28.50;99.90
21191;DHT22;10753;52.304;20.990;2022-07-01T05:57:43;28.60;99.90
21191;DHT22;10753;52.304;20.990;2022-07-01T06:00:09;28.70;99.90
21191;DHT22;10753;52.304;20.990;2022-07-01T06:02:36;28.90;99.90
21191;DHT22;10753;52.304;20.990;2022-07-01T06:05:02;29.00;99.90
21191;DHT22;10753;52.304;20.990;2022-07-01T06:07:28;29.10;99.90
21191;DHT22;10753;52.304;20.990;2022-07-01T06:09:55;29.30;99.90
21191;DHT22;10753;52.304;20.990;2022-07-01T06:12:21;29.40;99.90
21191;DHT22;10753;52.304;20.990;2022-07-01T06:14:47;29.50;99.90
21191;DHT22;10753;52.304;20.990;2022-07-01T06:17:12;29.60;99.90
21191;DHT22;10753;52.304;20.990;2022-07-01T06:19:39;29.70;66.10
21191;DHT22;10753;52.304;20.990;2022-07-01T06:22:05;29.90;32.90
21191;DHT22;10753;52.304;20.990;2022-07-01T06:24:31;30.10;9.30
21191;DHT22;10753;52.304;20.990;2022-07-01T06:26:56;30.30;1.00
21191;DHT22;10753;52.304;20.990;2022-07-01T06:29:22;30.50;1.00
21191;DHT22;10753;52.304;20.990;2022-07-01T06:31:47;30.60;1.00
21191;DHT22;10753;52.304;20.990;2022-07-01T06:34:13;30.70;1.00
21191;DHT22;10753;52.304;20.990;2022-07-01T06:36:39;30.80;1.00
21191;DHT22;10753;52.304;20.990;2022-07-01T06:39:04;31.00;1.00
21191;DHT22;10753;52.304;20.990;2022-07-01T06:41:30;31.30;1.00
21191;DHT22;10753;52.304;20.990;2022-07-01T06:44:00;31.50;1.00
21191;DHT22;10753;52.304;20.990;2022-07-01T06:46:27;31.50;1.00
21191;DHT22;10753;52.304;20.990;2022-07-01T06:48:53;31.70;1.00
21191;DHT22;10753;52.304;20.990;2022-07-01T06:51:18;31.90;1.00
21191;DHT22;10753;52.304;20.990;2022-07-01T06:53:44;32.50;1.00
21191;DHT22;10753;52.304;20.990;2022-07-01T06:56:15;33.70;1.00
21191;DHT22;10753;52.304;20.990;2022-07-01T06:58:41;35.60;1.00
21191;DHT22;10753;52.304;20.990;2022-07-01T07:01:07;37.30;1.00
21191;DHT22;10753;52.304;20.990;2022-07-01T07:03:32;38.40;24.90
21191;DHT22;10753;52.304;20.990;2022-07-01T07:05:59;39.10;30.60
21191;DHT22;10753;52.304;20.990;2022-07-01T07:08:29;39.80;24.30
21191;DHT22;10753;52.304;20.990;2022-07-01T07:10:55;40.20;17.80
21191;DHT22;10753;52.304;20.990;2022-07-01T07:13:21;40.90;13.60
21191;DHT22;10753;52.304;20.990;2022-07-01T07:15:46;41.70;11.40
21191;DHT22;10753;52.304;20.990;2022-07-01T07:18:12;42.60;6.50
21191;DHT22;10753;52.304;20.990;2022-07-01T07:20:38;43.20;3.60
21191;DHT22;10753;52.304;20.990;2022-07-01T07:23:04;43.70;1.00
21191;DHT22;10753;52.304;20.990;2022-07-01T07:25:30;44.40;1.00
21191;DHT22;10753;52.304;20.990;2022-07-01T07:27:56;44.50;1.00
21191;DHT22;10753;52.304;20.990;2022-07-01T07:30:22;44.30;1.00
21191;DHT22;10753;52.304;20.990;2022-07-01T07:32:47;44.10;1.00
21191;DHT22;10753;52.304;20.990;2022-07-01T07:35:13;44.50;1.00
21191;DHT22;10753;52.304;20.990;2022-07-01T07:37:39;45.50;1.00
21191;DHT22;10753;52.304;20.990;2022-07-01T07:40:06;46.10;1.00
21191;DHT22;10753;52.304;20.990;2022-07-01T07:42:38;46.10;1.00
21191;DHT22;10753;52.304;20.990;2022-07-01T07:45:05;46.50;1.00
21191;DHT22;10753;52.304;20.990;2022-07-01T07:47:32;46.80;1.00
21191;DHT22;10753;52.304;20.990;2022-07-01T07:49:58;47.00;1.00
21191;DHT22;10753;52.304;20.990;2022-07-01T07:52:24;47.50;1.00
21191;DHT22;10753;52.304;20.990;2022-07-01T07:54:49;48.30;1.00
21191;DHT22;10753;52.304;20.990;2022-07-01T07:57:15;48.70;1.00
21191;DHT22;10753;52.304;20.990;2022-07-01T07:59:41;49.10;1.00
21191;DHT22;10753;52.304;20.990;2022-07-01T08:02:06;49.40;1.00
21191;DHT22;10753;52.304;20.990;2022-07-01T08:04:32;49.50;1.00
21191;DHT22;10753;52.304;20.990;2022-07-01T08:06:58;50.10;1.00
21191;DHT22;10753;52.304;20.990;2022-07-01T08:09:24;50.60;1.00
21191;DHT22;10753;52.304;20.990;2022-07-01T08:11:50;51.00;1.00
21191;DHT22;10753;52.304;20.990;2022-07-01T08:14:16;51.20;1.00
21191;DHT22;10753;52.304;20.990;2022-07-01T08:16:41;51.70;1.00
21191;DHT22;10753;52.304;20.990;2022-07-01T08:19:07;52.20;1.00
21191;DHT22;10753;52.304;20.990;2022-07-01T08:21:33;52.70;1.00
21191;DHT22;10753;52.304;20.990;2022-07-01T08:23:58;52.60;1.00
21191;DHT22;10753;52.304;20.990;2022-07-01T08:26:24;52.60;1.00
21191;DHT22;10753;52.304;20.990;2022-07-01T08:28:49;52.60;1.00
21191;DHT22;10753;52.304;20.990;2022-07-01T08:31:15;52.70;1.00
21191;DHT22;10753;52.304;20.990;2022-07-01T08:33:41;53.00;1.00
21191;DHT22;10753;52.304;20.990;2022-07-01T08:36:09;53.40;1.00
21191;DHT22;10753;52.304;20.990;2022-07-01T08:38:35;53.70;1.00
21191;DHT22;10753;52.304;20.990;2022-07-01T08:41:02;53.40;1.00
21191;DHT22;10753;52.304;20.990;2022-07-01T08:43:28;53.20;1.00
21191;DHT22;10753;52.304;20.990;2022-07-01T08:45:54;52.20;1.00
21191;DHT22;10753;52.304;20.990;2022-07-01T08:48:20;51.60;1.00
21191;DHT22;10753;52.304;20.990;2022-07-01T08:50:46;50.70;1.00
21191;DHT22;10753;52.304;20.990;2022-07-01T08:53:13;50.90;1.00
21191;DHT22;10753;52.304;20.990;2022-07-01T08:55:39;51.60;1.00
21191;DHT22;10753;52.304;20.990;2022-07-01T08:58:25;52.00;1.00
21191;DHT22;10753;52.304;20.990;2022-07-01T09:00:51;52.30;1.00
21191;DHT22;10753;52.304;20.990;2022-07-01T09:03:20;53.00;1.00
21191;DHT22;10753;52.304;20.990;2022-07-01T09:05:51;53.40;1.00
21191;DHT22;10753;52.304;20.990;2022-07-01T09:08:17;53.70;1.00
21191;DHT22;10753;52.304;20.990;2022-07-01T09:10:43;53.70;1.00
21191;DHT22;10753;52.304;20.990;2022-07-01T09:13:11;54.40;1.00
21191;DHT22;10753;52.304;20.990;2022-07-01T09:15:38;54.70;1.00
21191;DHT22;10753;52.304;20.990;2022-07-01T09:18:13;55.10;1.00
21191;DHT22;10753;52.304;20.990;2022-07-01T09:20:44;55.30;1.00
21191;DHT22;10753;52.304;20.990;2022-07-01T09:23:13;54.10;1.00
21191;DHT22;10753;52.304;20.990;2022-07-01T09:25:43;53.70;1.00
21191;DHT22;10753;52.304;20.990;2022-07-01T09:28:16;53.30;1.00
21191;DHT22;10753;52.304;20.990;2022-07-01T09:30:45;53.50;1.00
21191;DHT22;10753;52.304;20.990;2022-07-01T09:33:18;53.70;1.00
21191;DHT22;10753;52.304;20.990;2022-07-01T09:35:46;53.50;1.00
21191;DHT22;10753;52.304;20.990;2022-07-01T09:38:15;53.50;1.00
21191;DHT22;10753;52.304;20.990;2022-07-01T09:40:56;52.60;1.00
21191;DHT22;10753;52.304;20.990;2022-07-01T09:43:28;51.50;1.00
21191;DHT22;10753;52.304;20.990;2022-07-01T09:46:01;51.60;1.00
21191;DHT22;10753;52.304;20.990;2022-07-01T09:48:43;51.70;1.00
21191;DHT22;10753;52.304;20.990;2022-07-01T09:51:10;52.20;1.00
21191;DHT22;10753;52.304;20.990;2022-07-01T09:53:36;52.20;1.00
21191;DHT22;10753;52.304;20.990;2022-07-01T09:56:02;52.20;1.00
21191;DHT22;10753;52.304;20.990;2022-07-01T09:58:28;52.20;1.00
21191;DHT22;10753;52.304;20.990;2022-07-01T10:00:54;52.10;1.00
21191;DHT22;10753;52.304;20.990;2022-07-01T10:03:22;52.40;1.00
21191;DHT22;10753;52.304;20.990;2022-07-01T10:05:54;52.80;1.00
21191;DHT22;10753;52.304;20.990;2022-07-01T10:14:06;52.80;1.00
21191;DHT22;10753;52.304;20.990;2022-07-01T10:16:34;52.30;1.00
21191;DHT22;10753;52.304;20.990;2022-07-01T10:19:06;51.10;1.00
21191;DHT22;10753;52.304;20.990;2022-07-01T10:21:50;51.20;1.00
21191;DHT22;10753;52.304;20.990;2022-07-01T10:24:23;51.30;1.00
21191;DHT22;10753;52.304;20.990;2022-07-01T10:26:48;51.90;1.00
21191;DHT22;10753;52.304;20.990;2022-07-01T10:29:34;52.20;1.00
21191;DHT22;10753;52.304;20.990;2022-07-01T10:34:49;51.90;1.00
21191;DHT22;10753;52.304;20.990;2022-07-01T10:37:17;51.70;1.00
21191;DHT22;10753;52.304;20.990;2022-07-01T10:39:59;50.40;1.00
21191;DHT22;10753;52.304;20.990;2022-07-01T10:42:30;51.40;1.00
21191;DHT22;10753;52.304;20.990;2022-07-01T10:45:14;51.90;1.00
21191;DHT22;10753;52.304;20.990;2022-07-01T10:47:42;52.80;1.00
21191;DHT22;10753;52.304;20.990;2022-07-01T10:50:13;52.30;1.00
21191;DHT22;10753;52.304;20.990;2022-07-01T10:53:02;52.80;1.00
21191;DHT22;10753;52.304;20.990;2022-07-01T10:55:40;52.60;1.00
21191;DHT22;10753;52.304;20.990;2022-07-01T10:58:06;52.70;1.00
21191;DHT22;10753;52.304;20.990;2022-07-01T11:00:33;53.00;1.00
21191;DHT22;10753;52.304;20.990;2022-07-01T11:03:20;53.10;1.00
21191;DHT22;10753;52.304;20.990;2022-07-01T11:05:49;53.40;1.00
21191;DHT22;10753;52.304;20.990;2022-07-01T11:08:14;53.70;1.00
21191;DHT22;10753;52.304;20.990;2022-07-01T11:10:41;53.40;1.00
21191;DHT22;10753;52.304;20.990;2022-07-01T11:13:08;53.90;1.00
21191;DHT22;10753;52.304;20.990;2022-07-01T11:15:38;54.90;1.00
21191;DHT22;10753;52.304;20.990;2022-07-01T11:18:04;53.70;1.00
21191;DHT22;10753;52.304;20.990;2022-07-01T11:20:32;53.30;1.00
21191;DHT22;10753;52.304;20.990;2022-07-01T11:22:58;53.30;1.00
21191;DHT22;10753;52.304;20.990;2022-07-01T11:25:23;51.80;1.00
21191;DHT22;10753;52.304;20.990;2022-07-01T11:27:51;51.80;1.00
21191;DHT22;10753;52.304;20.990;2022-07-01T11:30:18;51.60;1.00
21191;DHT22;10753;52.304;20.990;2022-07-01T11:32:47;52.00;1.00
21191;DHT22;10753;52.304;20.990;2022-07-01T11:35:21;50.70;1.00
21191;DHT22;10753;52.304;20.990;2022-07-01T11:38:08;50.40;1.00
21191;DHT22;10753;52.304;20.990;2022-07-01T11:40:53;49.80;1.00
21191;DHT22;10753;52.304;20.990;2022-07-01T11:43:24;50.60;1.00
21191;DHT22;10753;52.304;20.990;2022-07-01T11:45:50;51.00;1.00
21191;DHT22;10753;52.304;20.990;2022-07-01T11:51:06;52.40;1.00
21191;DHT22;10753;52.304;20.990;2022-07-01T11:53:32;51.70;1.00
21191;DHT22;10753;52.304;20.990;2022-07-01T11:55:58;51.30;1.00
21191;DHT22;10753;52.304;20.990;2022-07-01T11:58:24;51.20;1.00
21191;DHT22;10753;52.304;20.990;2022-07-01T12:00:49;51.30;1.00
21191;DHT22;10753;52.304;20.990;2022-07-01T12:03:35;50.00;1.00
21191;DHT22;10753;52.304;20.990;2022-07-01T12:06:03;49.60;1.00
21191;DHT22;10753;52.304;20.990;2022-07-01T12:08:29;50.00;1.00
21191;DHT22;10753;52.304;20.990;2022-07-01T12:10:55;50.60;1.00
21191;DHT22;10753;52.304;20.990;2022-07-01T12:13:25;51.30;1.00
21191;DHT22;10753;52.304;20.990;2022-07-01T12:15:51;51.60;1.00
21191;DHT22;10753;52.304;20.990;2022-07-01T12:18:17;51.30;1.00
21191;DHT22;10753;52.304;20.990;2022-07-01T12:21:03;51.10;1.00
21191;DHT22;10753;52.304;20.990;2022-07-01T12:23:29;50.40;1.00
21191;DHT22;10753;52.304;20.990;2022-07-01T12:25:56;49.90;1.00
21191;DHT22;10753;52.304;20.990;2022-07-01T12:28:32;50.10;1.00
21191;DHT22;10753;52.304;20.990;2022-07-01T12:31:09;49.50;1.00
21191;DHT22;10753;52.304;20.990;2022-07-01T12:33:44;49.20;1.00
21191;DHT22;10753;52.304;20.990;2022-07-01T12:36:13;49.00;1.00
21191;DHT22;10753;52.304;20.990;2022-07-01T12:38:41;49.50;1.00
21191;DHT22;10753;52.304;20.990;2022-07-01T12:41:29;49.40;1.00
21191;DHT22;10753;52.304;20.990;2022-07-01T12:43:55;48.90;1.00
21191;DHT22;10753;52.304;20.990;2022-07-01T12:46:28;48.90;1.00
21191;DHT22;10753;52.304;20.990;2022-07-01T12:48:54;48.70;1.00
21191;DHT22;10753;52.304;20.990;2022-07-01T12:51:20;48.80;1.00
21191;DHT22;10753;52.304;20.990;2022-07-01T12:53:45;49.00;1.00
21191;DHT22;10753;52.304;20.990;2022-07-01T12:56:22;48.90;1.00
21191;DHT22;10753;52.304;20.990;2022-07-01T12:58:49;49.20;1.00
21191;DHT22;10753;52.304;20.990;2022-07-01T13:01:14;49.20;1.00
21191;DHT22;10753;52.304;20.990;2022-07-01T13:03:40;49.40;1.00
21191;DHT22;10753;52.304;20.990;2022-07-01T13:06:06;49.30;1.00
21191;DHT22;10753;52.304;20.990;2022-07-01T13:08:31;48.80;1.00
21191;DHT22;10753;52.304;20.990;2022-07-01T13:10:57;48.20;1.00
21191;DHT22;10753;52.304;20.990;2022-07-01T13:13:23;47.90;1.00
21191;DHT22;10753;52.304;20.990;2022-07-01T13:15:49;47.30;1.00
21191;DHT22;10753;52.304;20.990;2022-07-01T13:18:15;46.60;1.00
21191;DHT22;10753;52.304;20.990;2022-07-01T13:20:41;46.30;1.00
21191;DHT22;10753;52.304;20.990;2022-07-01T13:23:07;46.60;1.00
21191;DHT22;10753;52.304;20.990;2022-07-01T13:25:33;46.70;1.00
21191;DHT22;10753;52.304;20.990;2022-07-01T13:27:59;46.90;1.00
21191;DHT22;10753;52.304;20.990;2022-07-01T13:30:24;46.80;1.00
21191;DHT22;10753;52.304;20.990;2022-07-01T13:32:50;46.70;1.00
21191;DHT22;10753;52.304;20.990;2022-07-01T13:35:20;46.40;1.00
21191;DHT22;10753;52.304;20.990;2022-07-01T13:37:45;46.60;1.00
21191;DHT22;10753;52.304;20.990;2022-07-01T13:40:11;46.20;1.00
21191;DHT22;10753;52.304;20.990;2022-07-01T13:42:37;46.20;1.00
21191;DHT22;10753;52.304;20.990;2022-07-01T13:45:06;45.70;1.00
21191;DHT22;10753;52.304;20.990;2022-07-01T13:47:32;45.40;1.00
21191;DHT22;10753;52.304;20.990;2022-07-01T13:49:58;45.50;1.00
21191;DHT22;10753;52.304;20.990;2022-07-01T13:52:24;46.00;1.00
21191;DHT22;10753;52.304;20.990;2022-07-01T13:54:49;45.80;1.00
21191;DHT22;10753;52.304;20.990;2022-07-01T13:57:16;45.60;1.00
21191;DHT22;10753;52.304;20.990;2022-07-01T13:59:42;45.40;1.00
21191;DHT22;10753;52.304;20.990;2022-07-01T14:02:11;45.20;1.00
21191;DHT22;10753;52.304;20.990;2022-07-01T14:04:37;44.80;1.00
21191;DHT22;10753;52.304;20.990;2022-07-01T14:07:03;44.50;1.00
21191;DHT22;10753;52.304;20.990;2022-07-01T14:09:28;44.50;1.00
21191;DHT22;10753;52.304;20.990;2022-07-01T14:11:54;44.00;1.00
21191;DHT22;10753;52.304;20.990;2022-07-01T14:14:20;43.70;1.00
21191;DHT22;10753;52.304;20.990;2022-07-01T14:16:45;43.60;1.00
21191;DHT22;10753;52.304;20.990;2022-07-01T14:19:11;43.30;1.00
21191;DHT22;10753;52.304;20.990;2022-07-01T14:21:37;43.40;1.00
21191;DHT22;10753;52.304;20.990;2022-07-01T14:24:06;43.40;1.00
21191;DHT22;10753;52.304;20.990;2022-07-01T14:26:32;43.30;1.00
21191;DHT22;10753;52.304;20.990;2022-07-01T14:29:03;42.80;1.00
21191;DHT22;10753;52.304;20.990;2022-07-01T14:31:29;42.10;1.00
21191;DHT22;10753;52.304;20.990;2022-07-01T14:33:55;42.10;1.00
21191;DHT22;10753;52.304;20.990;2022-07-01T14:36:20;41.80;1.00
21191;DHT22;10753;52.304;20.990;2022-07-01T14:38:46;41.80;1.00
21191;DHT22;10753;52.304;20.990;2022-07-01T14:41:12;41.50;1.00
21191;DHT22;10753;52.304;20.990;2022-07-01T14:43:37;41.00;1.00
21191;DHT22;10753;52.304;20.990;2022-07-01T14:46:03;40.80;1.00
21191;DHT22;10753;52.304;20.990;2022-07-01T14:48:34;40.50;1.00
21191;DHT22;10753;52.304;20.990;2022-07-01T14:51:01;39.90;1.00
21191;DHT22;10753;52.304;20.990;2022-07-01T14:53:27;39.40;1.00
21191;DHT22;10753;52.304;20.990;2022-07-01T14:55:52;38.80;1.00
21191;DHT22;10753;52.304;20.990;2022-07-01T14:58:18;38.40;1.00
21191;DHT22;10753;52.304;20.990;2022-07-01T15:00:45;38.20;1.00
21191;DHT22;10753;52.304;20.990;2022-07-01T15:03:11;37.70;1.00
21191;DHT22;10753;52.304;20.990;2022-07-01T15:05:36;37.50;1.00
21191;DHT22;10753;52.304;20.990;2022-07-01T15:08:02;37.20;1.00
21191;DHT22;10753;52.304;20.990;2022-07-01T15:10:28;37.00;1.00
21191;DHT22;10753;52.304;20.990;2022-07-01T15:12:53;36.80;1.00
21191;DHT22;10753;52.304;20.990;2022-07-01T15:15:19;36.60;1.00
21191;DHT22;10753;52.304;20.990;2022-07-01T15:17:45;36.50;1.00
21191;DHT22;10753;52.304;20.990;2022-07-01T15:20:12;36.40;1.00
21191;DHT22;10753;52.304;20.990;2022-07-01T15:22:38;36.30;1.00
21191;DHT22;10753;52.304;20.990;2022-07-01T15:25:04;36.10;1.00
21191;DHT22;10753;52.304;20.990;2022-07-01T15:27:30;36.10;1.00
21191;DHT22;10753;52.304;20.990;2022-07-01T15:29:56;36.00;1.00
21191;DHT22;10753;52.304;20.990;2022-07-01T15:32:22;35.90;1.00
21191;DHT22;10753;52.304;20.990;2022-07-01T15:34:48;35.80;1.00
21191;DHT22;10753;52.304;20.990;2022-07-01T15:37:14;35.60;1.00
21191;DHT22;10753;52.304;20.990;2022-07-01T15:39:39;35.60;1.00
21191;DHT22;10753;52.304;20.990;2022-07-01T15:42:05;35.50;1.00
21191;DHT22;10753;52.304;20.990;2022-07-01T15:44:31;35.60;1.00